Elkins, West Virginia
Current Conditions -  °F | °C
As of 6:51 AM on Monday 24 Nov 2014 (Local Time) from KEKN Reporting Station
Broken Clouds Broken Clouds  
Wind Chill: 59°   Ceiling: 6000
Heat Index: 59°   Visibility: 10mi
Dew Point: 48°   Wind: 6mph
Humidity: 67%   Direction: NA
Pressure: 29.59"   Gusts: NA
Location:  38.92°N, 79.84°W
Report Text: KEKN 241151Z AUTO VRB05KT 10SM BKN060 15/09 A2959 RMK AO2 SLP017 70005 T01500089 10161 20144 51007 TSNO
Loading
Personal Weather Stations






























Interactive Weather Map New forecast layout! Learn more

10-Day Weather Forecast

Advertisements
Track Severe Weather on mobile